sensor_id;sensor_type;location;lat;lon;timestamp;temperature;humidity
41547;DHT22;27271;45.412;10.852;2023-07-22T04:31:49;18.40;99.90
41547;DHT22;27271;45.412;10.852;2023-07-22T04:35:11;18.60;99.90
41547;DHT22;27271;45.412;10.852;2023-07-22T04:38:35;18.60;99.90
41547;DHT22;27271;45.412;10.852;2023-07-22T04:41:58;18.70;99.90
41547;DHT22;27271;45.412;10.852;2023-07-22T04:45:22;18.80;99.90
41547;DHT22;27271;45.412;10.852;2023-07-22T04:48:47;18.90;99.90
41547;DHT22;27271;45.412;10.852;2023-07-22T04:52:09;19.00;99.90
41547;DHT22;27271;45.412;10.852;2023-07-22T04:55:35;19.20;99.90
41547;DHT22;27271;45.412;10.852;2023-07-22T04:58:58;19.40;99.90
41547;DHT22;27271;45.412;10.852;2023-07-22T05:02:21;19.60;99.90
41547;DHT22;27271;45.412;10.852;2023-07-22T05:05:43;19.80;99.90
41547;DHT22;27271;45.412;10.852;2023-07-22T05:09:05;19.90;99.90
41547;DHT22;27271;45.412;10.852;2023-07-22T05:12:27;20.10;99.90
41547;DHT22;27271;45.412;10.852;2023-07-22T05:15:50;20.20;99.90
41547;DHT22;27271;45.412;10.852;2023-07-22T05:19:12;20.40;99.90
41547;DHT22;27271;45.412;10.852;2023-07-22T05:22:34;20.40;99.90
41547;DHT22;27271;45.412;10.852;2023-07-22T05:25:57;20.50;99.90
41547;DHT22;27271;45.412;10.852;2023-07-22T05:29:19;20.50;99.90
41547;DHT22;27271;45.412;10.852;2023-07-22T05:32:41;20.50;99.90
41547;DHT22;27271;45.412;10.852;2023-07-22T05:36:04;20.60;99.90
41547;DHT22;27271;45.412;10.852;2023-07-22T05:39:26;20.70;99.90
41547;DHT22;27271;45.412;10.852;2023-07-22T05:42:49;20.70;99.90
41547;DHT22;27271;45.412;10.852;2023-07-22T05:46:11;20.80;99.90
41547;DHT22;27271;45.412;10.852;2023-07-22T05:49:33;20.80;99.90
41547;DHT22;27271;45.412;10.852;2023-07-22T05:52:56;20.80;99.90
41547;DHT22;27271;45.412;10.852;2023-07-22T05:56:18;20.80;99.90
41547;DHT22;27271;45.412;10.852;2023-07-22T05:59:40;20.80;99.90
41547;DHT22;27271;45.412;10.852;2023-07-22T06:03:03;20.90;99.90
41547;DHT22;27271;45.412;10.852;2023-07-22T06:06:27;21.00;99.90
41547;DHT22;27271;45.412;10.852;2023-07-22T06:09:50;21.00;99.90
41547;DHT22;27271;45.412;10.852;2023-07-22T06:13:12;21.10;99.90
41547;DHT22;27271;45.412;10.852;2023-07-22T06:16:34;21.00;99.90
41547;DHT22;27271;45.412;10.852;2023-07-22T06:19:57;21.10;99.90
41547;DHT22;27271;45.412;10.852;2023-07-22T06:23:19;21.30;99.90
41547;DHT22;27271;45.412;10.852;2023-07-22T06:26:41;21.80;99.90
41547;DHT22;27271;45.412;10.852;2023-07-22T06:30:04;22.70;99.90
41547;DHT22;27271;45.412;10.852;2023-07-22T06:33:27;23.10;99.90
41547;DHT22;27271;45.412;10.852;2023-07-22T06:36:49;23.20;99.90
41547;DHT22;27271;45.412;10.852;2023-07-22T06:40:11;23.30;99.90
41547;DHT22;27271;45.412;10.852;2023-07-22T06:43:33;23.20;99.90
41547;DHT22;27271;45.412;10.852;2023-07-22T06:46:57;23.20;99.90
41547;DHT22;27271;45.412;10.852;2023-07-22T06:50:19;23.50;99.90
41547;DHT22;27271;45.412;10.852;2023-07-22T06:53:41;23.50;99.90
41547;DHT22;27271;45.412;10.852;2023-07-22T06:57:04;23.80;99.90
41547;DHT22;27271;45.412;10.852;2023-07-22T07:00:28;25.10;99.90
41547;DHT22;27271;45.412;10.852;2023-07-22T07:03:50;25.20;99.90
41547;DHT22;27271;45.412;10.852;2023-07-22T07:07:13;25.30;99.90
41547;DHT22;27271;45.412;10.852;2023-07-22T07:10:38;25.70;99.90
41547;DHT22;27271;45.412;10.852;2023-07-22T07:14:04;26.40;99.90
41547;DHT22;27271;45.412;10.852;2023-07-22T07:17:26;26.60;99.90
41547;DHT22;27271;45.412;10.852;2023-07-22T07:20:49;26.10;99.90
41547;DHT22;27271;45.412;10.852;2023-07-22T07:24:14;26.70;99.90
41547;DHT22;27271;45.412;10.852;2023-07-22T07:27:36;27.00;99.90
41547;DHT22;27271;45.412;10.852;2023-07-22T07:30:58;26.40;99.90
41547;DHT22;27271;45.412;10.852;2023-07-22T07:34:21;25.40;99.90
41547;DHT22;27271;45.412;10.852;2023-07-22T07:37:43;25.10;99.90
41547;DHT22;27271;45.412;10.852;2023-07-22T07:41:06;25.20;99.90
41547;DHT22;27271;45.412;10.852;2023-07-22T07:44:33;25.50;99.90
41547;DHT22;27271;45.412;10.852;2023-07-22T07:47:56;26.10;1.00
41547;DHT22;27271;45.412;10.852;2023-07-22T07:51:19;26.40;99.90
41547;DHT22;27271;45.412;10.852;2023-07-22T07:54:42;27.20;99.90
41547;DHT22;27271;45.412;10.852;2023-07-22T07:58:04;28.30;87.70
41547;DHT22;27271;45.412;10.852;2023-07-22T08:01:26;28.70;99.90
41547;DHT22;27271;45.412;10.852;2023-07-22T08:04:49;29.00;99.90
41547;DHT22;27271;45.412;10.852;2023-07-22T08:08:11;29.20;12.30
41547;DHT22;27271;45.412;10.852;2023-07-22T08:11:33;29.10;1.00
41547;DHT22;27271;45.412;10.852;2023-07-22T08:14:56;29.20;1.00
41547;DHT22;27271;45.412;10.852;2023-07-22T08:18:18;28.80;1.00
41547;DHT22;27271;45.412;10.852;2023-07-22T08:21:40;29.10;1.00
41547;DHT22;27271;45.412;10.852;2023-07-22T08:25:03;29.30;1.00
41547;DHT22;27271;45.412;10.852;2023-07-22T08:28:26;29.90;1.00
41547;DHT22;27271;45.412;10.852;2023-07-22T08:31:48;30.20;1.00
41547;DHT22;27271;45.412;10.852;2023-07-22T08:35:10;30.70;1.00
41547;DHT22;27271;45.412;10.852;2023-07-22T08:38:32;31.20;1.00
41547;DHT22;27271;45.412;10.852;2023-07-22T08:41:54;31.40;1.00
41547;DHT22;27271;45.412;10.852;2023-07-22T08:45:19;31.60;1.00
41547;DHT22;27271;45.412;10.852;2023-07-22T08:48:42;32.10;1.00
41547;DHT22;27271;45.412;10.852;2023-07-22T08:52:08;32.20;1.00
41547;DHT22;27271;45.412;10.852;2023-07-22T08:55:30;32.10;1.00
41547;DHT22;27271;45.412;10.852;2023-07-22T08:58:52;33.40;1.00
41547;DHT22;27271;45.412;10.852;2023-07-22T09:02:15;35.10;1.00
41547;DHT22;27271;45.412;10.852;2023-07-22T09:05:37;35.10;1.00
41547;DHT22;27271;45.412;10.852;2023-07-22T09:09:00;36.00;1.00
41547;DHT22;27271;45.412;10.852;2023-07-22T09:12:23;36.60;99.90
41547;DHT22;27271;45.412;10.852;2023-07-22T09:15:47;36.60;99.90
41547;DHT22;27271;45.412;10.852;2023-07-22T09:19:12;37.00;99.90
41547;DHT22;27271;45.412;10.852;2023-07-22T09:22:34;36.40;99.90
41547;DHT22;27271;45.412;10.852;2023-07-22T09:26:08;35.80;99.90
41547;DHT22;27271;45.412;10.852;2023-07-22T09:29:38;34.70;99.90
41547;DHT22;27271;45.412;10.852;2023-07-22T09:33:03;33.60;99.90
41547;DHT22;27271;45.412;10.852;2023-07-22T09:36:25;32.70;99.90
41547;DHT22;27271;45.412;10.852;2023-07-22T09:39:48;32.00;1.00
41547;DHT22;27271;45.412;10.852;2023-07-22T09:43:11;31.80;99.90
41547;DHT22;27271;45.412;10.852;2023-07-22T09:46:36;31.30;1.00
41547;DHT22;27271;45.412;10.852;2023-07-22T09:49:59;30.70;1.00
41547;DHT22;27271;45.412;10.852;2023-07-22T09:53:21;29.40;1.00
41547;DHT22;27271;45.412;10.852;2023-07-22T09:56:45;28.60;1.00
41547;DHT22;27271;45.412;10.852;2023-07-22T10:00:08;27.90;1.00
41547;DHT22;27271;45.412;10.852;2023-07-22T10:03:35;27.50;1.00
41547;DHT22;27271;45.412;10.852;2023-07-22T10:06:59;26.80;1.00
41547;DHT22;27271;45.412;10.852;2023-07-22T10:10:30;26.30;1.00
41547;DHT22;27271;45.412;10.852;2023-07-22T10:13:53;25.90;2.40
41547;DHT22;27271;45.412;10.852;2023-07-22T10:17:17;25.60;83.70
41547;DHT22;27271;45.412;10.852;2023-07-22T10:20:39;25.10;74.10
41547;DHT22;27271;45.412;10.852;2023-07-22T10:24:03;24.70;99.90
41547;DHT22;27271;45.412;10.852;2023-07-22T10:27:26;24.30;99.90
41547;DHT22;27271;45.412;10.852;2023-07-22T10:30:52;23.90;99.90
41547;DHT22;27271;45.412;10.852;2023-07-22T10:34:14;23.50;99.90
41547;DHT22;27271;45.412;10.852;2023-07-22T10:37:40;23.20;99.90
41547;DHT22;27271;45.412;10.852;2023-07-22T10:41:16;22.80;99.90
41547;DHT22;27271;45.412;10.852;2023-07-22T10:44:39;22.40;22.90
41547;DHT22;27271;45.412;10.852;2023-07-22T10:48:11;22.30;99.90
41547;DHT22;27271;45.412;10.852;2023-07-22T10:51:36;22.20;99.90
41547;DHT22;27271;45.412;10.852;2023-07-22T10:55:01;22.10;99.90
41547;DHT22;27271;45.412;10.852;2023-07-22T10:58:23;21.80;99.90
41547;DHT22;27271;45.412;10.852;2023-07-22T11:01:45;21.50;99.90
41547;DHT22;27271;45.412;10.852;2023-07-22T11:05:11;21.30;99.90
41547;DHT22;27271;45.412;10.852;2023-07-22T11:08:39;21.40;99.90
41547;DHT22;27271;45.412;10.852;2023-07-22T11:12:12;21.40;99.90
41547;DHT22;27271;45.412;10.852;2023-07-22T11:15:35;21.20;99.90
41547;DHT22;27271;45.412;10.852;2023-07-22T11:18:58;21.00;99.90
41547;DHT22;27271;45.412;10.852;2023-07-22T11:22:20;21.00;99.90
41547;DHT22;27271;45.412;10.852;2023-07-22T11:25:42;21.20;99.90
41547;DHT22;27271;45.412;10.852;2023-07-22T11:29:05;21.40;99.90
41547;DHT22;27271;45.412;10.852;2023-07-22T11:32:27;21.70;99.90
41547;DHT22;27271;45.412;10.852;2023-07-22T11:35:49;22.00;99.90
41547;DHT22;27271;45.412;10.852;2023-07-22T11:39:19;22.50;99.90
41547;DHT22;27271;45.412;10.852;2023-07-22T11:42:41;23.60;99.90
41547;DHT22;27271;45.412;10.852;2023-07-22T11:46:05;24.40;99.90
41547;DHT22;27271;45.412;10.852;2023-07-22T11:49:33;25.10;99.90
41547;DHT22;27271;45.412;10.852;2023-07-22T11:52:55;26.00;1.00
41547;DHT22;27271;45.412;10.852;2023-07-22T11:56:25;26.60;1.00
41547;DHT22;27271;45.412;10.852;2023-07-22T11:59:52;26.70;99.90
41547;DHT22;27271;45.412;10.852;2023-07-22T12:03:15;26.70;99.90
41547;DHT22;27271;45.412;10.852;2023-07-22T12:06:37;26.60;99.90
41547;DHT22;27271;45.412;10.852;2023-07-22T12:10:01;26.40;1.00
41547;DHT22;27271;45.412;10.852;2023-07-22T12:13:23;26.60;99.90
41547;DHT22;27271;45.412;10.852;2023-07-22T12:16:45;26.70;1.00
41547;DHT22;27271;45.412;10.852;2023-07-22T12:20:08;27.10;99.90
41547;DHT22;27271;45.412;10.852;2023-07-22T12:23:31;27.20;99.90
41547;DHT22;27271;45.412;10.852;2023-07-22T12:26:53;27.20;99.90
41547;DHT22;27271;45.412;10.852;2023-07-22T12:30:16;27.50;99.90
41547;DHT22;27271;45.412;10.852;2023-07-22T12:33:41;27.50;99.90
41547;DHT22;27271;45.412;10.852;2023-07-22T12:37:03;27.70;81.80
41547;DHT22;27271;45.412;10.852;2023-07-22T12:40:28;28.00;1.00
41547;DHT22;27271;45.412;10.852;2023-07-22T12:43:50;28.20;1.00
41547;DHT22;27271;45.412;10.852;2023-07-22T12:47:13;28.50;1.00
41547;DHT22;27271;45.412;10.852;2023-07-22T12:50:35;28.80;1.00
41547;DHT22;27271;45.412;10.852;2023-07-22T12:53:57;28.90;1.00
41547;DHT22;27271;45.412;10.852;2023-07-22T12:57:19;28.90;1.00
41547;DHT22;27271;45.412;10.852;2023-07-22T13:00:41;29.00;1.00
41547;DHT22;27271;45.412;10.852;2023-07-22T13:04:04;29.20;1.00
41547;DHT22;27271;45.412;10.852;2023-07-22T13:07:26;29.20;1.00
41547;DHT22;27271;45.412;10.852;2023-07-22T13:10:48;29.30;1.00
41547;DHT22;27271;45.412;10.852;2023-07-22T13:14:10;29.40;1.00
41547;DHT22;27271;45.412;10.852;2023-07-22T13:17:32;29.50;1.00
41547;DHT22;27271;45.412;10.852;2023-07-22T13:20:54;29.70;1.00
41547;DHT22;27271;45.412;10.852;2023-07-22T13:24:16;29.70;1.00
41547;DHT22;27271;45.412;10.852;2023-07-22T13:27:38;29.80;1.00
41547;DHT22;27271;45.412;10.852;2023-07-22T13:31:02;29.70;1.00
41547;DHT22;27271;45.412;10.852;2023-07-22T13:34:24;29.40;1.00
41547;DHT22;27271;45.412;10.852;2023-07-22T13:37:47;29.40;1.00
41547;DHT22;27271;45.412;10.852;2023-07-22T13:41:09;29.50;1.00
41547;DHT22;27271;45.412;10.852;2023-07-22T13:44:31;29.50;1.00
41547;DHT22;27271;45.412;10.852;2023-07-22T13:47:53;29.60;1.00
41547;DHT22;27271;45.412;10.852;2023-07-22T13:51:15;29.70;1.00
41547;DHT22;27271;45.412;10.852;2023-07-22T13:54:37;29.70;1.00
41547;DHT22;27271;45.412;10.852;2023-07-22T13:58:00;29.80;1.00
41547;DHT22;27271;45.412;10.852;2023-07-22T14:01:22;29.80;1.00
41547;DHT22;27271;45.412;10.852;2023-07-22T14:04:45;29.90;1.00
41547;DHT22;27271;45.412;10.852;2023-07-22T14:08:07;29.80;1.00
41547;DHT22;27271;45.412;10.852;2023-07-22T14:11:29;30.00;1.00
41547;DHT22;27271;45.412;10.852;2023-07-22T14:14:51;30.00;1.00
41547;DHT22;27271;45.412;10.852;2023-07-22T14:18:13;30.20;1.00
41547;DHT22;27271;45.412;10.852;2023-07-22T14:21:39;30.60;1.00
41547;DHT22;27271;45.412;10.852;2023-07-22T14:25:01;30.50;1.00
41547;DHT22;27271;45.412;10.852;2023-07-22T14:28:23;30.40;1.00
41547;DHT22;27271;45.412;10.852;2023-07-22T14:31:45;30.60;1.00
41547;DHT22;27271;45.412;10.852;2023-07-22T14:35:07;30.60;1.00
41547;DHT22;27271;45.412;10.852;2023-07-22T14:38:30;30.40;1.00
41547;DHT22;27271;45.412;10.852;2023-07-22T14:41:52;30.40;1.00
41547;DHT22;27271;45.412;10.852;2023-07-22T14:45:14;30.20;1.00
41547;DHT22;27271;45.412;10.852;2023-07-22T14:48:36;30.10;1.00
41547;DHT22;27271;45.412;10.852;2023-07-22T14:51:58;30.20;1.00
41547;DHT22;27271;45.412;10.852;2023-07-22T14:55:20;30.10;1.00
41547;DHT22;27271;45.412;10.852;2023-07-22T14:58:43;30.30;1.00
41547;DHT22;27271;45.412;10.852;2023-07-22T15:02:05;30.30;1.00
41547;DHT22;27271;45.412;10.852;2023-07-22T15:05:27;30.30;1.00
41547;DHT22;27271;45.412;10.852;2023-07-22T15:08:49;30.10;1.00
41547;DHT22;27271;45.412;10.852;2023-07-22T15:12:11;30.20;1.00
41547;DHT22;27271;45.412;10.852;2023-07-22T15:15:37;30.20;1.00
41547;DHT22;27271;45.412;10.852;2023-07-22T15:18:59;30.00;1.00
41547;DHT22;27271;45.412;10.852;2023-07-22T15:22:21;30.10;1.00
41547;DHT22;27271;45.412;10.852;2023-07-22T15:25:43;30.10;1.00
41547;DHT22;27271;45.412;10.852;2023-07-22T15:29:05;30.00;1.00
41547;DHT22;27271;45.412;10.852;2023-07-22T15:32:27;30.10;1.00
41547;DHT22;27271;45.412;10.852;2023-07-22T15:35:49;30.20;1.00
41547;DHT22;27271;45.412;10.852;2023-07-22T15:39:11;30.10;1.00
41547;DHT22;27271;45.412;10.852;2023-07-22T15:42:33;30.00;1.00
41547;DHT22;27271;45.412;10.852;2023-07-22T15:45:56;30.00;1.00
41547;DHT22;27271;45.412;10.852;2023-07-22T15:49:18;30.00;1.00
41547;DHT22;27271;45.412;10.852;2023-07-22T15:52:40;29.70;1.00
41547;DHT22;27271;45.412;10.852;2023-07-22T15:56:02;29.60;1.00
41547;DHT22;27271;45.412;10.852;2023-07-22T15:59:24;29.60;1.00
41547;DHT22;27271;45.412;10.852;2023-07-22T16:02:46;29.70;1.00
41547;DHT22;27271;45.412;10.852;2023-07-22T16:06:09;29.90;1.00
41547;DHT22;27271;45.412;10.852;2023-07-22T16:09:47;29.80;1.00
41547;DHT22;27271;45.412;10.852;2023-07-22T16:13:12;29.50;1.00
41547;DHT22;27271;45.412;10.852;2023-07-22T16:16:34;29.60;1.00
41547;DHT22;27271;45.412;10.852;2023-07-22T16:19:59;29.60;1.00
41547;DHT22;27271;45.412;10.852;2023-07-22T16:23:21;29.80;1.00
41547;DHT22;27271;45.412;10.852;2023-07-22T16:26:43;29.50;1.00
41547;DHT22;27271;45.412;10.852;2023-07-22T16:30:06;29.30;1.00
41547;DHT22;27271;45.412;10.852;2023-07-22T16:33:31;29.30;1.00
41547;DHT22;27271;45.412;10.852;2023-07-22T16:36:53;29.40;1.00
41547;DHT22;27271;45.412;10.852;2023-07-22T16:40:15;29.20;1.00
41547;DHT22;27271;45.412;10.852;2023-07-22T16:43:39;29.10;1.00
41547;DHT22;27271;45.412;10.852;2023-07-22T16:47:01;29.10;1.00
41547;DHT22;27271;45.412;10.852;2023-07-22T16:50:23;28.90;1.00
41547;DHT22;27271;45.412;10.852;2023-07-22T16:53:45;28.80;1.00
41547;DHT22;27271;45.412;10.852;2023-07-22T16:57:07;28.80;1.00
41547;DHT22;27271;45.412;10.852;2023-07-22T17:00:30;28.70;1.00
41547;DHT22;27271;45.412;10.852;2023-07-22T17:03:52;28.70;1.00
41547;DHT22;27271;45.412;10.852;2023-07-22T17:07:14;28.60;1.00
41547;DHT22;27271;45.412;10.852;2023-07-22T17:10:38;28.30;1.00
41547;DHT22;27271;45.412;10.852;2023-07-22T17:14:00;28.10;1.00
41547;DHT22;27271;45.412;10.852;2023-07-22T17:17:22;28.10;1.00
41547;DHT22;27271;45.412;10.852;2023-07-22T17:20:44;28.10;1.00
41547;DHT22;27271;45.412;10.852;2023-07-22T17:24:07;28.10;1.00
41547;DHT22;27271;45.412;10.852;2023-07-22T17:27:29;28.10;1.00
41547;DHT22;27271;45.412;10.852;2023-07-22T17:30:51;28.00;1.00
41547;DHT22;27271;45.412;10.852;2023-07-22T17:34:13;28.00;1.00
41547;DHT22;27271;45.412;10.852;2023-07-22T17:37:35;27.90;1.00
41547;DHT22;27271;45.412;10.852;2023-07-22T17:40:57;27.90;1.00
41547;DHT22;27271;45.412;10.852;2023-07-22T17:44:19;27.80;1.00
41547;DHT22;27271;45.412;10.852;2023-07-22T17:47:41;27.60;1.00
41547;DHT22;27271;45.412;10.852;2023-07-22T17:51:04;27.40;1.00
41547;DHT22;27271;45.412;10.852;2023-07-22T17:54:26;27.20;1.00
41547;DHT22;27271;45.412;10.852;2023-07-22T17:57:48;27.00;1.00
41547;DHT22;27271;45.412;10.852;2023-07-22T18:01:10;26.70;1.70
41547;DHT22;27271;45.412;10.852;2023-07-22T18:04:33;26.50;22.00
41547;DHT22;27271;45.412;10.852;2023-07-22T18:07:55;26.40;39.40
41547;DHT22;27271;45.412;10.852;2023-07-22T18:11:17;26.10;99.90
41547;DHT22;27271;45.412;10.852;2023-07-22T18:14:40;26.00;99.90
41547;DHT22;27271;45.412;10.852;2023-07-22T18:18:02;25.80;99.90
41547;DHT22;27271;45.412;10.852;2023-07-22T18:21:24;25.70;99.90
41547;DHT22;27271;45.412;10.852;2023-07-22T18:24:47;25.60;99.90
41547;DHT22;27271;45.412;10.852;2023-07-22T18:28:09;25.50;99.90
41547;DHT22;27271;45.412;10.852;2023-07-22T18:31:31;25.40;99.90
41547;DHT22;27271;45.412;10.852;2023-07-22T18:34:54;25.40;99.90
41547;DHT22;27271;45.412;10.852;2023-07-22T18:38:19;25.30;99.90
41547;DHT22;27271;45.412;10.852;2023-07-22T18:41:42;25.20;99.90
41547;DHT22;27271;45.412;10.852;2023-07-22T18:45:04;25.00;99.90
41547;DHT22;27271;45.412;10.852;2023-07-22T18:48:26;24.80;1.00
41547;DHT22;27271;45.412;10.852;2023-07-22T18:51:48;24.70;1.00
41547;DHT22;27271;45.412;10.852;2023-07-22T18:55:10;24.60;1.00
41547;DHT22;27271;45.412;10.852;2023-07-22T18:58:34;24.40;1.00
41547;DHT22;27271;45.412;10.852;2023-07-22T19:01:58;24.30;99.90
41547;DHT22;27271;45.412;10.852;2023-07-22T19:05:21;24.10;99.90
41547;DHT22;27271;45.412;10.852;2023-07-22T19:08:43;24.10;99.90
41547;DHT22;27271;45.412;10.852;2023-07-22T19:12:05;23.90;99.90
41547;DHT22;27271;45.412;10.852;2023-07-22T19:15:27;23.80;99.90
41547;DHT22;27271;45.412;10.852;2023-07-22T19:18:49;23.70;99.90
41547;DHT22;27271;45.412;10.852;2023-07-22T19:22:11;23.60;99.90
41547;DHT22;27271;45.412;10.852;2023-07-22T19:25:37;23.60;99.90
41547;DHT22;27271;45.412;10.852;2023-07-22T19:28:59;23.50;1.00
41547;DHT22;27271;45.412;10.852;2023-07-22T19:32:21;23.40;1.00
41547;DHT22;27271;45.412;10.852;2023-07-22T19:35:43;23.30;77.60
41547;DHT22;27271;45.412;10.852;2023-07-22T19:39:06;23.30;93.10
41547;DHT22;27271;45.412;10.852;2023-07-22T19:42:28;23.20;99.90
41547;DHT22;27271;45.412;10.852;2023-07-22T19:46:02;23.10;99.90
41547;DHT22;27271;45.412;10.852;2023-07-22T19:49:25;23.00;99.90
41547;DHT22;27271;45.412;10.852;2023-07-22T19:52:48;23.00;99.90
41547;DHT22;27271;45.412;10.852;2023-07-22T19:56:10;23.00;99.90
41547;DHT22;27271;45.412;10.852;2023-07-22T19:59:33;22.90;99.90
41547;DHT22;27271;45.412;10.852;2023-07-22T20:02:55;22.90;99.90
41547;DHT22;27271;45.412;10.852;2023-07-22T20:06:17;22.90;99.90
41547;DHT22;27271;45.412;10.852;2023-07-22T20:09:39;22.70;99.90
41547;DHT22;27271;45.412;10.852;2023-07-22T20:13:04;22.70;99.90
41547;DHT22;27271;45.412;10.852;2023-07-22T20:16:26;22.60;1.00
41547;DHT22;27271;45.412;10.852;2023-07-22T20:19:49;22.50;1.00
41547;DHT22;27271;45.412;10.852;2023-07-22T20:23:11;22.50;1.00
41547;DHT22;27271;45.412;10.852;2023-07-22T20:26:33;22.50;1.00
41547;DHT22;27271;45.412;10.852;2023-07-22T20:29:55;22.50;1.00
41547;DHT22;27271;45.412;10.852;2023-07-22T20:33:17;22.50;1.00
41547;DHT22;27271;45.412;10.852;2023-07-22T20:36:39;22.50;1.00
41547;DHT22;27271;45.412;10.852;2023-07-22T20:40:02;22.40;1.00
41547;DHT22;27271;45.412;10.852;2023-07-22T20:43:24;22.40;1.00
41547;DHT22;27271;45.412;10.852;2023-07-22T20:46:46;22.40;1.00
41547;DHT22;27271;45.412;10.852;2023-07-22T20:50:08;22.40;1.00
41547;DHT22;27271;45.412;10.852;2023-07-22T20:53:34;22.40;1.00
41547;DHT22;27271;45.412;10.852;2023-07-22T20:56:56;22.30;1.00
41547;DHT22;27271;45.412;10.852;2023-07-22T21:00:18;22.20;1.00
41547;DHT22;27271;45.412;10.852;2023-07-22T21:03:40;22.10;1.00
41547;DHT22;27271;45.412;10.852;2023-07-22T21:07:03;22.10;1.00
41547;DHT22;27271;45.412;10.852;2023-07-22T21:10:25;22.10;1.00
41547;DHT22;27271;45.412;10.852;2023-07-22T21:13:47;22.10;1.00
41547;DHT22;27271;45.412;10.852;2023-07-22T21:17:09;22.10;1.00
41547;DHT22;27271;45.412;10.852;2023-07-22T21:20:31;22.10;1.00
41547;DHT22;27271;45.412;10.852;2023-07-22T21:23:53;22.10;1.00
41547;DHT22;27271;45.412;10.852;2023-07-22T21:27:16;22.10;1.00
41547;DHT22;27271;45.412;10.852;2023-07-22T21:30:38;22.10;1.00
41547;DHT22;27271;45.412;10.852;2023-07-22T21:34:00;22.10;1.00
41547;DHT22;27271;45.412;10.852;2023-07-22T21:37:36;22.00;99.90
41547;DHT22;27271;45.412;10.852;2023-07-22T21:40:58;22.00;1.00
41547;DHT22;27271;45.412;10.852;2023-07-22T21:44:20;21.90;1.00
41547;DHT22;27271;45.412;10.852;2023-07-22T21:47:42;22.00;1.00
41547;DHT22;27271;45.412;10.852;2023-07-22T21:51:04;21.90;1.00
41547;DHT22;27271;45.412;10.852;2023-07-22T21:54:26;21.90;1.00
41547;DHT22;27271;45.412;10.852;2023-07-22T21:57:49;21.90;1.00
41547;DHT22;27271;45.412;10.852;2023-07-22T22:01:11;21.80;1.00
41547;DHT22;27271;45.412;10.852;2023-07-22T22:04:33;21.80;1.00
41547;DHT22;27271;45.412;10.852;2023-07-22T22:07:55;21.70;1.00
41547;DHT22;27271;45.412;10.852;2023-07-22T22:11:17;21.70;99.90
41547;DHT22;27271;45.412;10.852;2023-07-22T22:14:39;21.70;99.90
41547;DHT22;27271;45.412;10.852;2023-07-22T22:18:01;21.70;99.90
41547;DHT22;27271;45.412;10.852;2023-07-22T22:21:24;21.60;99.90
41547;DHT22;27271;45.412;10.852;2023-07-22T22:24:47;21.60;99.90
41547;DHT22;27271;45.412;10.852;2023-07-22T22:28:09;21.60;99.90
